sensor_id;sensor_type;location;lat;lon;timestamp;P1;durP1;ratioP1;P2;durP2;ratioP2
5153;SDS011;2595;53.584;10.084;2023-01-08T00:01:57;3.57;;;3.37;;
5153;SDS011;2595;53.584;10.084;2023-01-08T00:04:22;2.47;;;2.37;;
5153;SDS011;2595;53.584;10.084;2023-01-08T00:06:48;3.07;;;2.87;;
5153;SDS011;2595;53.584;10.084;2023-01-08T00:09:13;3.03;;;2.83;;
5153;SDS011;2595;53.584;10.084;2023-01-08T00:11:39;2.87;;;2.70;;
5153;SDS011;2595;53.584;10.084;2023-01-08T00:14:05;2.63;;;2.53;;
5153;SDS011;2595;53.584;10.084;2023-01-08T00:16:30;3.27;;;3.07;;
5153;SDS011;2595;53.584;10.084;2023-01-08T00:18:56;3.53;;;3.23;;
5153;SDS011;2595;53.584;10.084;2023-01-08T00:21:22;2.80;;;2.60;;
5153;SDS011;2595;53.584;10.084;2023-01-08T00:23:48;3.00;;;2.80;;
5153;SDS011;2595;53.584;10.084;2023-01-08T00:26:13;3.23;;;3.03;;
5153;SDS011;2595;53.584;10.084;2023-01-08T00:28:40;3.20;;;3.00;;
5153;SDS011;2595;53.584;10.084;2023-01-08T00:31:06;4.20;;;2.97;;
5153;SDS011;2595;53.584;10.084;2023-01-08T00:33:33;3.20;;;3.00;;
5153;SDS011;2595;53.584;10.084;2023-01-08T00:36:05;3.33;;;3.03;;
5153;SDS011;2595;53.584;10.084;2023-01-08T00:38:32;3.40;;;3.07;;
5153;SDS011;2595;53.584;10.084;2023-01-08T00:40:57;3.10;;;2.90;;
5153;SDS011;2595;53.584;10.084;2023-01-08T00:43:23;3.37;;;3.07;;
5153;SDS011;2595;53.584;10.084;2023-01-08T00:45:48;3.77;;;3.47;;
5153;SDS011;2595;53.584;10.084;2023-01-08T00:48:17;2.30;;;2.20;;
5153;SDS011;2595;53.584;10.084;2023-01-08T00:50:43;2.70;;;2.53;;
5153;SDS011;2595;53.584;10.084;2023-01-08T00:53:09;2.83;;;2.73;;
5153;SDS011;2595;53.584;10.084;2023-01-08T00:55:34;3.20;;;3.00;;
5153;SDS011;2595;53.584;10.084;2023-01-08T00:58:00;2.73;;;2.53;;
5153;SDS011;2595;53.584;10.084;2023-01-08T01:00:25;3.20;;;3.00;;
5153;SDS011;2595;53.584;10.084;2023-01-08T01:02:52;2.90;;;2.80;;
5153;SDS011;2595;53.584;10.084;2023-01-08T01:05:18;3.30;;;3.00;;
5153;SDS011;2595;53.584;10.084;2023-01-08T01:07:43;3.93;;;3.63;;
5153;SDS011;2595;53.584;10.084;2023-01-08T01:10:10;2.70;;;2.60;;
5153;SDS011;2595;53.584;10.084;2023-01-08T01:12:37;2.87;;;2.67;;
5153;SDS011;2595;53.584;10.084;2023-01-08T01:15:05;3.47;;;3.27;;
5153;SDS011;2595;53.584;10.084;2023-01-08T01:17:31;2.67;;;2.57;;
5153;SDS011;2595;53.584;10.084;2023-01-08T01:19:57;3.03;;;2.83;;
5153;SDS011;2595;53.584;10.084;2023-01-08T01:22:23;3.30;;;3.10;;
5153;SDS011;2595;53.584;10.084;2023-01-08T01:24:49;2.97;;;2.77;;
5153;SDS011;2595;53.584;10.084;2023-01-08T01:27:14;3.30;;;3.10;;
5153;SDS011;2595;53.584;10.084;2023-01-08T01:29:40;2.90;;;2.70;;
5153;SDS011;2595;53.584;10.084;2023-01-08T01:32:05;3.10;;;2.00;;
5153;SDS011;2595;53.584;10.084;2023-01-08T01:34:32;3.10;;;2.87;;
5153;SDS011;2595;53.584;10.084;2023-01-08T01:36:57;2.87;;;2.67;;
5153;SDS011;2595;53.584;10.084;2023-01-08T01:39:23;2.80;;;2.60;;
5153;SDS011;2595;53.584;10.084;2023-01-08T01:41:49;3.57;;;3.37;;
5153;SDS011;2595;53.584;10.084;2023-01-08T01:47:29;2.70;;;2.50;;
5153;SDS011;2595;53.584;10.084;2023-01-08T01:50:06;4.70;;;2.90;;
5153;SDS011;2595;53.584;10.084;2023-01-08T01:52:37;3.13;;;2.87;;
5153;SDS011;2595;53.584;10.084;2023-01-08T01:55:07;3.20;;;3.00;;
5153;SDS011;2595;53.584;10.084;2023-01-08T01:57:35;3.33;;;3.13;;
5153;SDS011;2595;53.584;10.084;2023-01-08T02:00:02;3.03;;;2.83;;
5153;SDS011;2595;53.584;10.084;2023-01-08T02:02:30;2.70;;;2.50;;
5153;SDS011;2595;53.584;10.084;2023-01-08T02:04:59;3.30;;;3.10;;
5153;SDS011;2595;53.584;10.084;2023-01-08T02:10:06;3.90;;;3.60;;
5153;SDS011;2595;53.584;10.084;2023-01-08T02:12:38;3.20;;;3.00;;
5153;SDS011;2595;53.584;10.084;2023-01-08T02:15:17;2.97;;;2.77;;
5153;SDS011;2595;53.584;10.084;2023-01-08T02:18:07;2.80;;;2.60;;
5153;SDS011;2595;53.584;10.084;2023-01-08T02:20:39;2.57;;;2.47;;
5153;SDS011;2595;53.584;10.084;2023-01-08T02:23:15;3.23;;;3.03;;
5153;SDS011;2595;53.584;10.084;2023-01-08T02:28:28;3.23;;;2.90;;
5153;SDS011;2595;53.584;10.084;2023-01-08T02:30:56;2.90;;;2.70;;
5153;SDS011;2595;53.584;10.084;2023-01-08T02:33:25;2.77;;;2.67;;
5153;SDS011;2595;53.584;10.084;2023-01-08T02:35:54;3.07;;;2.97;;
5153;SDS011;2595;53.584;10.084;2023-01-08T02:41:25;3.40;;;3.20;;
5153;SDS011;2595;53.584;10.084;2023-01-08T02:44:17;2.87;;;2.70;;
5153;SDS011;2595;53.584;10.084;2023-01-08T02:46:48;2.87;;;2.77;;
5153;SDS011;2595;53.584;10.084;2023-01-08T02:49:18;2.37;;;2.27;;
5153;SDS011;2595;53.584;10.084;2023-01-08T02:51:48;3.20;;;3.00;;
5153;SDS011;2595;53.584;10.084;2023-01-08T02:54:20;2.50;;;2.40;;
5153;SDS011;2595;53.584;10.084;2023-01-08T02:56:56;3.33;;;3.13;;
5153;SDS011;2595;53.584;10.084;2023-01-08T02:59:26;2.40;;;2.30;;
5153;SDS011;2595;53.584;10.084;2023-01-08T03:01:55;2.87;;;2.77;;
5153;SDS011;2595;53.584;10.084;2023-01-08T03:04:21;3.07;;;2.87;;
5153;SDS011;2595;53.584;10.084;2023-01-08T03:06:50;2.77;;;2.57;;
5153;SDS011;2595;53.584;10.084;2023-01-08T03:09:16;3.40;;;3.20;;
5153;SDS011;2595;53.584;10.084;2023-01-08T03:11:47;2.30;;;2.20;;
5153;SDS011;2595;53.584;10.084;2023-01-08T03:14:25;3.57;;;3.37;;
5153;SDS011;2595;53.584;10.084;2023-01-08T03:17:04;3.23;;;3.07;;
5153;SDS011;2595;53.584;10.084;2023-01-08T03:19:39;6.40;;;3.43;;
5153;SDS011;2595;53.584;10.084;2023-01-08T03:22:12;2.40;;;2.30;;
5153;SDS011;2595;53.584;10.084;2023-01-08T03:24:40;3.30;;;3.07;;
5153;SDS011;2595;53.584;10.084;2023-01-08T03:27:08;3.27;;;3.00;;
5153;SDS011;2595;53.584;10.084;2023-01-08T03:29:40;3.10;;;2.90;;
5153;SDS011;2595;53.584;10.084;2023-01-08T03:32:08;2.80;;;2.70;;
5153;SDS011;2595;53.584;10.084;2023-01-08T03:34:38;3.10;;;2.80;;
5153;SDS011;2595;53.584;10.084;2023-01-08T03:37:06;2.97;;;2.77;;
5153;SDS011;2595;53.584;10.084;2023-01-08T03:42:16;3.50;;;3.00;;
5153;SDS011;2595;53.584;10.084;2023-01-08T03:44:44;2.57;;;2.47;;
5153;SDS011;2595;53.584;10.084;2023-01-08T03:47:10;3.57;;;3.37;;
5153;SDS011;2595;53.584;10.084;2023-01-08T03:49:38;2.67;;;2.53;;
5153;SDS011;2595;53.584;10.084;2023-01-08T03:52:06;4.13;;;2.93;;
5153;SDS011;2595;53.584;10.084;2023-01-08T03:54:33;2.83;;;2.63;;
5153;SDS011;2595;53.584;10.084;2023-01-08T03:57:00;3.10;;;2.90;;
5153;SDS011;2595;53.584;10.084;2023-01-08T03:59:27;2.63;;;2.43;;
5153;SDS011;2595;53.584;10.084;2023-01-08T04:01:52;2.57;;;2.47;;
5153;SDS011;2595;53.584;10.084;2023-01-08T04:04:18;2.93;;;2.73;;
5153;SDS011;2595;53.584;10.084;2023-01-08T04:06:43;2.37;;;2.27;;
5153;SDS011;2595;53.584;10.084;2023-01-08T04:09:09;2.63;;;2.47;;
5153;SDS011;2595;53.584;10.084;2023-01-08T04:11:35;2.60;;;2.50;;
5153;SDS011;2595;53.584;10.084;2023-01-08T04:14:01;2.60;;;2.50;;
5153;SDS011;2595;53.584;10.084;2023-01-08T04:16:26;2.83;;;2.63;;
5153;SDS011;2595;53.584;10.084;2023-01-08T04:18:52;2.27;;;2.13;;
5153;SDS011;2595;53.584;10.084;2023-01-08T04:21:18;2.83;;;2.70;;
5153;SDS011;2595;53.584;10.084;2023-01-08T04:23:43;3.33;;;3.13;;
5153;SDS011;2595;53.584;10.084;2023-01-08T04:26:09;3.00;;;2.90;;
5153;SDS011;2595;53.584;10.084;2023-01-08T04:28:34;3.23;;;3.03;;
5153;SDS011;2595;53.584;10.084;2023-01-08T04:31:04;3.27;;;3.07;;
5153;SDS011;2595;53.584;10.084;2023-01-08T04:33:33;2.93;;;2.80;;
5153;SDS011;2595;53.584;10.084;2023-01-08T04:35:59;3.57;;;3.37;;
5153;SDS011;2595;53.584;10.084;2023-01-08T04:38:25;2.67;;;2.57;;
5153;SDS011;2595;53.584;10.084;2023-01-08T04:40:57;4.87;;;4.37;;
5153;SDS011;2595;53.584;10.084;2023-01-08T04:43:26;3.53;;;3.33;;
5153;SDS011;2595;53.584;10.084;2023-01-08T04:45:56;3.33;;;3.17;;
5153;SDS011;2595;53.584;10.084;2023-01-08T04:48:23;2.50;;;2.40;;
5153;SDS011;2595;53.584;10.084;2023-01-08T04:50:48;2.80;;;2.60;;
5153;SDS011;2595;53.584;10.084;2023-01-08T04:53:15;4.77;;;2.90;;
5153;SDS011;2595;53.584;10.084;2023-01-08T04:55:41;3.37;;;3.17;;
5153;SDS011;2595;53.584;10.084;2023-01-08T04:58:07;3.00;;;2.80;;
5153;SDS011;2595;53.584;10.084;2023-01-08T05:00:32;3.90;;;3.30;;
5153;SDS011;2595;53.584;10.084;2023-01-08T05:02:59;2.67;;;2.57;;
5153;SDS011;2595;53.584;10.084;2023-01-08T05:05:24;3.10;;;2.90;;
5153;SDS011;2595;53.584;10.084;2023-01-08T05:07:50;3.23;;;2.93;;
5153;SDS011;2595;53.584;10.084;2023-01-08T05:10:16;3.00;;;2.80;;
5153;SDS011;2595;53.584;10.084;2023-01-08T05:12:42;3.40;;;3.20;;
5153;SDS011;2595;53.584;10.084;2023-01-08T05:15:07;3.03;;;2.83;;
5153;SDS011;2595;53.584;10.084;2023-01-08T05:17:34;4.53;;;2.90;;
5153;SDS011;2595;53.584;10.084;2023-01-08T05:19:59;4.53;;;2.90;;
5153;SDS011;2595;53.584;10.084;2023-01-08T05:22:25;2.73;;;2.57;;
5153;SDS011;2595;53.584;10.084;2023-01-08T05:24:50;3.00;;;2.90;;
5153;SDS011;2595;53.584;10.084;2023-01-08T05:27:16;2.70;;;2.50;;
5153;SDS011;2595;53.584;10.084;2023-01-08T05:29:41;2.73;;;2.53;;
5153;SDS011;2595;53.584;10.084;2023-01-08T05:32:12;2.90;;;2.77;;
5153;SDS011;2595;53.584;10.084;2023-01-08T05:34:39;2.90;;;2.73;;
5153;SDS011;2595;53.584;10.084;2023-01-08T05:37:04;3.10;;;2.90;;
5153;SDS011;2595;53.584;10.084;2023-01-08T05:39:30;3.13;;;2.93;;
5153;SDS011;2595;53.584;10.084;2023-01-08T05:41:56;3.20;;;3.00;;
5153;SDS011;2595;53.584;10.084;2023-01-08T05:44:21;5.10;;;3.33;;
5153;SDS011;2595;53.584;10.084;2023-01-08T05:46:47;3.23;;;3.03;;
5153;SDS011;2595;53.584;10.084;2023-01-08T05:49:12;2.50;;;2.40;;
5153;SDS011;2595;53.584;10.084;2023-01-08T05:51:38;3.10;;;2.90;;
5153;SDS011;2595;53.584;10.084;2023-01-08T05:54:04;2.40;;;2.30;;
5153;SDS011;2595;53.584;10.084;2023-01-08T05:56:29;2.97;;;2.77;;
5153;SDS011;2595;53.584;10.084;2023-01-08T05:58:55;2.77;;;2.57;;
5153;SDS011;2595;53.584;10.084;2023-01-08T06:01:20;3.17;;;2.97;;
5153;SDS011;2595;53.584;10.084;2023-01-08T06:03:46;2.87;;;2.70;;
5153;SDS011;2595;53.584;10.084;2023-01-08T06:06:12;3.23;;;2.93;;
5153;SDS011;2595;53.584;10.084;2023-01-08T06:08:38;2.80;;;2.60;;
5153;SDS011;2595;53.584;10.084;2023-01-08T06:11:04;2.97;;;2.77;;
5153;SDS011;2595;53.584;10.084;2023-01-08T06:13:33;2.93;;;2.73;;
5153;SDS011;2595;53.584;10.084;2023-01-08T06:16:01;3.27;;;3.07;;
5153;SDS011;2595;53.584;10.084;2023-01-08T06:18:27;2.60;;;2.50;;
5153;SDS011;2595;53.584;10.084;2023-01-08T06:20:54;3.27;;;2.97;;
5153;SDS011;2595;53.584;10.084;2023-01-08T06:23:19;2.60;;;2.40;;
5153;SDS011;2595;53.584;10.084;2023-01-08T06:25:50;2.30;;;2.20;;
5153;SDS011;2595;53.584;10.084;2023-01-08T06:28:17;3.03;;;2.90;;
5153;SDS011;2595;53.584;10.084;2023-01-08T06:30:42;3.40;;;3.20;;
5153;SDS011;2595;53.584;10.084;2023-01-08T06:33:08;2.90;;;2.70;;
5153;SDS011;2595;53.584;10.084;2023-01-08T06:35:33;3.30;;;3.10;;
5153;SDS011;2595;53.584;10.084;2023-01-08T06:37:59;3.30;;;3.10;;
5153;SDS011;2595;53.584;10.084;2023-01-08T06:40:24;2.87;;;2.70;;
5153;SDS011;2595;53.584;10.084;2023-01-08T06:42:50;3.13;;;2.90;;
5153;SDS011;2595;53.584;10.084;2023-01-08T06:45:16;3.37;;;2.30;;
5153;SDS011;2595;53.584;10.084;2023-01-08T06:47:42;2.93;;;2.27;;
5153;SDS011;2595;53.584;10.084;2023-01-08T06:50:07;2.50;;;2.40;;
5153;SDS011;2595;53.584;10.084;2023-01-08T06:52:33;3.10;;;2.90;;
5153;SDS011;2595;53.584;10.084;2023-01-08T06:54:59;3.10;;;2.80;;
5153;SDS011;2595;53.584;10.084;2023-01-08T06:57:24;3.50;;;3.30;;
5153;SDS011;2595;53.584;10.084;2023-01-08T06:59:50;2.80;;;2.70;;
5153;SDS011;2595;53.584;10.084;2023-01-08T07:02:16;2.60;;;2.40;;
5153;SDS011;2595;53.584;10.084;2023-01-08T07:04:42;2.80;;;2.70;;
5153;SDS011;2595;53.584;10.084;2023-01-08T07:07:11;2.80;;;2.60;;
5153;SDS011;2595;53.584;10.084;2023-01-08T07:09:38;3.03;;;2.73;;
5153;SDS011;2595;53.584;10.084;2023-01-08T07:12:04;2.80;;;2.70;;
5153;SDS011;2595;53.584;10.084;2023-01-08T07:14:30;2.90;;;2.70;;
5153;SDS011;2595;53.584;10.084;2023-01-08T07:16:55;3.70;;;3.50;;
5153;SDS011;2595;53.584;10.084;2023-01-08T07:19:21;3.27;;;3.07;;
5153;SDS011;2595;53.584;10.084;2023-01-08T07:21:46;3.13;;;2.93;;
5153;SDS011;2595;53.584;10.084;2023-01-08T07:24:12;2.67;;;2.57;;
5153;SDS011;2595;53.584;10.084;2023-01-08T07:26:37;3.30;;;3.10;;
5153;SDS011;2595;53.584;10.084;2023-01-08T07:29:03;2.73;;;2.63;;
5153;SDS011;2595;53.584;10.084;2023-01-08T07:31:30;3.83;;;3.63;;
5153;SDS011;2595;53.584;10.084;2023-01-08T07:33:56;4.03;;;3.80;;
5153;SDS011;2595;53.584;10.084;2023-01-08T07:36:22;3.13;;;2.93;;
5153;SDS011;2595;53.584;10.084;2023-01-08T07:38:48;3.40;;;3.20;;
5153;SDS011;2595;53.584;10.084;2023-01-08T07:41:14;2.67;;;2.47;;
5153;SDS011;2595;53.584;10.084;2023-01-08T07:43:40;3.50;;;3.30;;
5153;SDS011;2595;53.584;10.084;2023-01-08T07:46:05;4.27;;;3.97;;
5153;SDS011;2595;53.584;10.084;2023-01-08T07:48:31;3.30;;;3.10;;
5153;SDS011;2595;53.584;10.084;2023-01-08T07:51:03;4.17;;;3.87;;
5153;SDS011;2595;53.584;10.084;2023-01-08T07:53:30;3.60;;;3.40;;
5153;SDS011;2595;53.584;10.084;2023-01-08T07:56:00;3.00;;;2.80;;
5153;SDS011;2595;53.584;10.084;2023-01-08T07:58:30;3.23;;;3.03;;
5153;SDS011;2595;53.584;10.084;2023-01-08T08:00:56;4.53;;;3.10;;
5153;SDS011;2595;53.584;10.084;2023-01-08T08:03:22;3.40;;;3.17;;
5153;SDS011;2595;53.584;10.084;2023-01-08T08:05:49;3.33;;;3.03;;
5153;SDS011;2595;53.584;10.084;2023-01-08T08:08:15;3.70;;;3.50;;
5153;SDS011;2595;53.584;10.084;2023-01-08T08:10:41;3.87;;;3.67;;
5153;SDS011;2595;53.584;10.084;2023-01-08T08:13:07;3.53;;;3.33;;
5153;SDS011;2595;53.584;10.084;2023-01-08T08:15:33;3.33;;;3.13;;
5153;SDS011;2595;53.584;10.084;2023-01-08T08:18:00;3.83;;;3.27;;
5153;SDS011;2595;53.584;10.084;2023-01-08T08:20:25;2.67;;;2.57;;
5153;SDS011;2595;53.584;10.084;2023-01-08T08:22:51;3.60;;;3.30;;
5153;SDS011;2595;53.584;10.084;2023-01-08T08:25:17;3.20;;;3.00;;
5153;SDS011;2595;53.584;10.084;2023-01-08T08:27:43;4.10;;;3.07;;
5153;SDS011;2595;53.584;10.084;2023-01-08T08:30:09;2.97;;;2.77;;
5153;SDS011;2595;53.584;10.084;2023-01-08T08:32:35;3.07;;;2.83;;
5153;SDS011;2595;53.584;10.084;2023-01-08T08:35:02;3.03;;;2.83;;
5153;SDS011;2595;53.584;10.084;2023-01-08T08:37:28;3.23;;;3.03;;
5153;SDS011;2595;53.584;10.084;2023-01-08T08:39:54;3.07;;;2.73;;
5153;SDS011;2595;53.584;10.084;2023-01-08T08:42:19;2.60;;;2.50;;
5153;SDS011;2595;53.584;10.084;2023-01-08T08:44:45;2.90;;;2.80;;
5153;SDS011;2595;53.584;10.084;2023-01-08T08:47:10;3.33;;;3.13;;
5153;SDS011;2595;53.584;10.084;2023-01-08T08:49:36;3.10;;;2.80;;
5153;SDS011;2595;53.584;10.084;2023-01-08T08:52:02;2.90;;;2.70;;
5153;SDS011;2595;53.584;10.084;2023-01-08T08:54:28;3.23;;;3.03;;
5153;SDS011;2595;53.584;10.084;2023-01-08T08:56:54;3.97;;;3.57;;
5153;SDS011;2595;53.584;10.084;2023-01-08T08:59:19;3.40;;;3.20;;
5153;SDS011;2595;53.584;10.084;2023-01-08T09:01:45;5.23;;;3.33;;
5153;SDS011;2595;53.584;10.084;2023-01-08T09:04:11;13.10;;;3.93;;
5153;SDS011;2595;53.584;10.084;2023-01-08T09:06:36;3.73;;;3.53;;
5153;SDS011;2595;53.584;10.084;2023-01-08T09:09:02;3.00;;;2.80;;
5153;SDS011;2595;53.584;10.084;2023-01-08T09:11:28;3.20;;;2.60;;
5153;SDS011;2595;53.584;10.084;2023-01-08T09:13:54;2.83;;;2.63;;
5153;SDS011;2595;53.584;10.084;2023-01-08T09:16:20;4.00;;;3.80;;
5153;SDS011;2595;53.584;10.084;2023-01-08T09:18:45;3.10;;;2.90;;
5153;SDS011;2595;53.584;10.084;2023-01-08T09:21:13;3.13;;;2.93;;
5153;SDS011;2595;53.584;10.084;2023-01-08T09:23:39;3.37;;;3.17;;
5153;SDS011;2595;53.584;10.084;2023-01-08T09:26:04;3.00;;;2.83;;
5153;SDS011;2595;53.584;10.084;2023-01-08T09:28:31;3.33;;;2.47;;
5153;SDS011;2595;53.584;10.084;2023-01-08T09:30:59;3.23;;;3.03;;
5153;SDS011;2595;53.584;10.084;2023-01-08T09:33:26;4.60;;;3.57;;
5153;SDS011;2595;53.584;10.084;2023-01-08T09:35:52;3.33;;;3.10;;
5153;SDS011;2595;53.584;10.084;2023-01-08T09:38:17;3.40;;;3.20;;
5153;SDS011;2595;53.584;10.084;2023-01-08T09:40:49;3.80;;;3.60;;
5153;SDS011;2595;53.584;10.084;2023-01-08T09:43:21;2.70;;;2.50;;
5153;SDS011;2595;53.584;10.084;2023-01-08T09:45:49;2.97;;;2.77;;
5153;SDS011;2595;53.584;10.084;2023-01-08T09:48:19;3.23;;;3.03;;
5153;SDS011;2595;53.584;10.084;2023-01-08T09:50:50;3.10;;;2.90;;
5153;SDS011;2595;53.584;10.084;2023-01-08T09:53:16;3.00;;;2.80;;
5153;SDS011;2595;53.584;10.084;2023-01-08T09:55:43;3.83;;;3.47;;
5153;SDS011;2595;53.584;10.084;2023-01-08T09:58:15;2.77;;;2.67;;
5153;SDS011;2595;53.584;10.084;2023-01-08T10:00:48;2.80;;;2.70;;
5153;SDS011;2595;53.584;10.084;2023-01-08T10:03:14;2.97;;;2.77;;
5153;SDS011;2595;53.584;10.084;2023-01-08T10:05:40;4.40;;;3.10;;
5153;SDS011;2595;53.584;10.084;2023-01-08T10:08:08;2.97;;;2.77;;
5153;SDS011;2595;53.584;10.084;2023-01-08T10:10:37;2.70;;;2.50;;
5153;SDS011;2595;53.584;10.084;2023-01-08T10:13:05;2.70;;;2.50;;
5153;SDS011;2595;53.584;10.084;2023-01-08T10:15:31;3.30;;;3.10;;
5153;SDS011;2595;53.584;10.084;2023-01-08T10:18:04;3.00;;;2.80;;
5153;SDS011;2595;53.584;10.084;2023-01-08T10:20:33;2.83;;;2.67;;
5153;SDS011;2595;53.584;10.084;2023-01-08T10:23:18;2.73;;;2.57;;
5153;SDS011;2595;53.584;10.084;2023-01-08T10:25:56;2.77;;;2.57;;
5153;SDS011;2595;53.584;10.084;2023-01-08T10:28:24;3.53;;;3.23;;
5153;SDS011;2595;53.584;10.084;2023-01-08T10:30:52;2.87;;;2.67;;
5153;SDS011;2595;53.584;10.084;2023-01-08T10:33:23;2.10;;;2.00;;
5153;SDS011;2595;53.584;10.084;2023-01-08T10:36:01;2.70;;;2.50;;
5153;SDS011;2595;53.584;10.084;2023-01-08T10:38:30;2.53;;;2.33;;
5153;SDS011;2595;53.584;10.084;2023-01-08T10:40:58;2.57;;;2.47;;
5153;SDS011;2595;53.584;10.084;2023-01-08T10:43:30;2.70;;;2.50;;
5153;SDS011;2595;53.584;10.084;2023-01-08T10:46:00;2.73;;;2.03;;
5153;SDS011;2595;53.584;10.084;2023-01-08T10:48:33;2.40;;;2.30;;
5153;SDS011;2595;53.584;10.084;2023-01-08T10:51:03;3.03;;;2.83;;
5153;SDS011;2595;53.584;10.084;2023-01-08T10:53:39;2.90;;;2.43;;
5153;SDS011;2595;53.584;10.084;2023-01-08T10:56:05;2.73;;;2.53;;
5153;SDS011;2595;53.584;10.084;2023-01-08T10:58:41;2.37;;;2.20;;
5153;SDS011;2595;53.584;10.084;2023-01-08T11:01:17;3.93;;;2.77;;
5153;SDS011;2595;53.584;10.084;2023-01-08T11:03:54;2.10;;;2.00;;
5153;SDS011;2595;53.584;10.084;2023-01-08T11:06:23;2.30;;;2.17;;
5153;SDS011;2595;53.584;10.084;2023-01-08T11:08:55;2.53;;;2.37;;
5153;SDS011;2595;53.584;10.084;2023-01-08T11:11:23;5.07;;;2.40;;
5153;SDS011;2595;53.584;10.084;2023-01-08T11:13:58;4.50;;;3.10;;
5153;SDS011;2595;53.584;10.084;2023-01-08T11:16:44;2.50;;;2.40;;
5153;SDS011;2595;53.584;10.084;2023-01-08T11:19:15;2.97;;;2.70;;
5153;SDS011;2595;53.584;10.084;2023-01-08T11:21:53;4.53;;;4.23;;
5153;SDS011;2595;53.584;10.084;2023-01-08T11:24:35;2.80;;;2.70;;
5153;SDS011;2595;53.584;10.084;2023-01-08T11:27:04;3.57;;;2.60;;
5153;SDS011;2595;53.584;10.084;2023-01-08T11:35:30;3.10;;;2.80;;
5153;SDS011;2595;53.584;10.084;2023-01-08T11:38:04;2.67;;;2.57;;
5153;SDS011;2595;53.584;10.084;2023-01-08T11:40:43;2.90;;;2.70;;
5153;SDS011;2595;53.584;10.084;2023-01-08T11:46:08;3.83;;;3.63;;
5153;SDS011;2595;53.584;10.084;2023-01-08T11:51:48;3.27;;;2.97;;
5153;SDS011;2595;53.584;10.084;2023-01-08T11:54:24;3.50;;;3.30;;
5153;SDS011;2595;53.584;10.084;2023-01-08T12:02:33;3.53;;;3.20;;
5153;SDS011;2595;53.584;10.084;2023-01-08T12:05:26;2.90;;;2.70;;
5153;SDS011;2595;53.584;10.084;2023-01-08T12:11:19;4.87;;;2.67;;
5153;SDS011;2595;53.584;10.084;2023-01-08T12:16:40;5.70;;;2.47;;
5153;SDS011;2595;53.584;10.084;2023-01-08T12:36:09;2.50;;;2.30;;
5153;SDS011;2595;53.584;10.084;2023-01-08T12:38:41;3.03;;;2.07;;
5153;SDS011;2595;53.584;10.084;2023-01-08T12:41:17;1.83;;;1.73;;
5153;SDS011;2595;53.584;10.084;2023-01-08T12:46:14;2.20;;;2.10;;
5153;SDS011;2595;53.584;10.084;2023-01-08T12:48:42;2.33;;;2.13;;
5153;SDS011;2595;53.584;10.084;2023-01-08T12:54:18;3.40;;;3.20;;
5153;SDS011;2595;53.584;10.084;2023-01-08T12:59:59;2.33;;;2.23;;
5153;SDS011;2595;53.584;10.084;2023-01-08T13:08:04;2.50;;;2.30;;
5153;SDS011;2595;53.584;10.084;2023-01-08T13:12:56;2.20;;;2.10;;
5153;SDS011;2595;53.584;10.084;2023-01-08T13:15:23;2.70;;;2.50;;
5153;SDS011;2595;53.584;10.084;2023-01-08T13:17:53;2.50;;;2.30;;
5153;SDS011;2595;53.584;10.084;2023-01-08T13:20:41;2.33;;;2.23;;
5153;SDS011;2595;53.584;10.084;2023-01-08T13:23:21;1.97;;;1.87;;
5153;SDS011;2595;53.584;10.084;2023-01-08T13:25:50;2.20;;;2.10;;
5153;SDS011;2595;53.584;10.084;2023-01-08T13:28:24;2.30;;;2.10;;
5153;SDS011;2595;53.584;10.084;2023-01-08T13:30:54;1.90;;;1.80;;
5153;SDS011;2595;53.584;10.084;2023-01-08T13:35:51;3.50;;;2.17;;
5153;SDS011;2595;53.584;10.084;2023-01-08T13:38:30;2.00;;;1.90;;
5153;SDS011;2595;53.584;10.084;2023-01-08T13:40:56;1.80;;;1.40;;
5153;SDS011;2595;53.584;10.084;2023-01-08T13:46:17;2.00;;;1.90;;
5153;SDS011;2595;53.584;10.084;2023-01-08T13:51:28;1.87;;;1.77;;
5153;SDS011;2595;53.584;10.084;2023-01-08T13:54:11;2.33;;;2.13;;
5153;SDS011;2595;53.584;10.084;2023-01-08T13:56:45;1.70;;;1.50;;
5153;SDS011;2595;53.584;10.084;2023-01-08T14:01:53;1.60;;;1.50;;
5153;SDS011;2595;53.584;10.084;2023-01-08T14:04:20;1.83;;;1.73;;
5153;SDS011;2595;53.584;10.084;2023-01-08T14:06:49;1.80;;;1.70;;
5153;SDS011;2595;53.584;10.084;2023-01-08T14:09:18;2.17;;;2.00;;
5153;SDS011;2595;53.584;10.084;2023-01-08T14:11:46;5.83;;;1.67;;
5153;SDS011;2595;53.584;10.084;2023-01-08T14:14:15;1.70;;;1.60;;
5153;SDS011;2595;53.584;10.084;2023-01-08T14:16:42;2.53;;;1.70;;
5153;SDS011;2595;53.584;10.084;2023-01-08T14:19:11;1.93;;;1.83;;
5153;SDS011;2595;53.584;10.084;2023-01-08T14:21:46;2.57;;;1.67;;
5153;SDS011;2595;53.584;10.084;2023-01-08T14:24:19;2.77;;;1.60;;
5153;SDS011;2595;53.584;10.084;2023-01-08T14:26:57;2.20;;;1.50;;
5153;SDS011;2595;53.584;10.084;2023-01-08T14:29:24;3.17;;;2.10;;
5153;SDS011;2595;53.584;10.084;2023-01-08T14:31:54;2.10;;;1.77;;
5153;SDS011;2595;53.584;10.084;2023-01-08T14:34:22;5.50;;;2.20;;
5153;SDS011;2595;53.584;10.084;2023-01-08T14:37:00;1.63;;;1.53;;
5153;SDS011;2595;53.584;10.084;2023-01-08T14:39:32;2.10;;;1.70;;
5153;SDS011;2595;53.584;10.084;2023-01-08T14:42:00;3.30;;;1.67;;
5153;SDS011;2595;53.584;10.084;2023-01-08T14:44:55;3.50;;;2.00;;
5153;SDS011;2595;53.584;10.084;2023-01-08T14:47:26;3.57;;;1.90;;
5153;SDS011;2595;53.584;10.084;2023-01-08T14:49:54;7.90;;;2.60;;
5153;SDS011;2595;53.584;10.084;2023-01-08T14:52:21;3.57;;;2.47;;
5153;SDS011;2595;53.584;10.084;2023-01-08T14:54:47;3.27;;;1.67;;
5153;SDS011;2595;53.584;10.084;2023-01-08T14:57:17;2.83;;;1.67;;
5153;SDS011;2595;53.584;10.084;2023-01-08T14:59:51;4.67;;;1.77;;
5153;SDS011;2595;53.584;10.084;2023-01-08T15:02:25;2.63;;;1.83;;
5153;SDS011;2595;53.584;10.084;2023-01-08T15:07:55;1.73;;;1.27;;
5153;SDS011;2595;53.584;10.084;2023-01-08T15:10:36;2.53;;;1.70;;
5153;SDS011;2595;53.584;10.084;2023-01-08T15:13:06;2.93;;;1.43;;
5153;SDS011;2595;53.584;10.084;2023-01-08T15:15:53;1.70;;;1.60;;
5153;SDS011;2595;53.584;10.084;2023-01-08T15:18:23;1.77;;;1.40;;
5153;SDS011;2595;53.584;10.084;2023-01-08T15:20:49;1.93;;;1.43;;
5153;SDS011;2595;53.584;10.084;2023-01-08T15:23:22;11.63;;;1.43;;
5153;SDS011;2595;53.584;10.084;2023-01-08T15:26:09;5.07;;;1.60;;
5153;SDS011;2595;53.584;10.084;2023-01-08T15:28:37;4.43;;;1.53;;
5153;SDS011;2595;53.584;10.084;2023-01-08T15:31:08;1.40;;;1.33;;
5153;SDS011;2595;53.584;10.084;2023-01-08T15:33:33;2.90;;;1.50;;
5153;SDS011;2595;53.584;10.084;2023-01-08T15:35:59;7.13;;;1.80;;
5153;SDS011;2595;53.584;10.084;2023-01-08T15:38:24;5.03;;;1.67;;
5153;SDS011;2595;53.584;10.084;2023-01-08T15:40:50;3.07;;;2.17;;
5153;SDS011;2595;53.584;10.084;2023-01-08T15:43:17;2.77;;;1.63;;
5153;SDS011;2595;53.584;10.084;2023-01-08T15:45:44;5.40;;;1.43;;
5153;SDS011;2595;53.584;10.084;2023-01-08T15:48:11;1.70;;;1.20;;
5153;SDS011;2595;53.584;10.084;2023-01-08T15:50:38;1.63;;;1.53;;
5153;SDS011;2595;53.584;10.084;2023-01-08T15:53:06;2.40;;;2.20;;
5153;SDS011;2595;53.584;10.084;2023-01-08T15:55:37;3.70;;;1.70;;
5153;SDS011;2595;53.584;10.084;2023-01-08T15:58:07;5.90;;;1.83;;
5153;SDS011;2595;53.584;10.084;2023-01-08T16:00:34;3.27;;;1.73;;
5153;SDS011;2595;53.584;10.084;2023-01-08T16:03:02;1.80;;;1.70;;
5153;SDS011;2595;53.584;10.084;2023-01-08T16:05:31;3.47;;;1.57;;
5153;SDS011;2595;53.584;10.084;2023-01-08T16:07:56;4.57;;;2.07;;
5153;SDS011;2595;53.584;10.084;2023-01-08T16:10:23;4.13;;;2.03;;
5153;SDS011;2595;53.584;10.084;2023-01-08T16:12:49;5.53;;;3.70;;
5153;SDS011;2595;53.584;10.084;2023-01-08T16:15:15;5.40;;;3.90;;
5153;SDS011;2595;53.584;10.084;2023-01-08T16:17:40;6.63;;;4.60;;
5153;SDS011;2595;53.584;10.084;2023-01-08T16:20:07;12.53;;;6.03;;
5153;SDS011;2595;53.584;10.084;2023-01-08T16:22:33;7.63;;;4.90;;
5153;SDS011;2595;53.584;10.084;2023-01-08T16:24:59;9.83;;;4.60;;
5153;SDS011;2595;53.584;10.084;2023-01-08T16:27:25;5.00;;;3.37;;
5153;SDS011;2595;53.584;10.084;2023-01-08T16:29:51;6.63;;;4.00;;
5153;SDS011;2595;53.584;10.084;2023-01-08T16:32:16;4.10;;;3.80;;
5153;SDS011;2595;53.584;10.084;2023-01-08T16:34:42;4.77;;;3.73;;